sensor_id;sensor_type;location;lat;lon;timestamp;pressure;altitude;pressure_sealevel;temperature;humidity
10587;BME280;5341;47.606;7.576;2022-09-09T00:00:21;98533.53;;;22.08;49.51
10587;BME280;5341;47.606;7.576;2022-09-09T00:02:57;98535.06;;;22.04;49.51
10587;BME280;5341;47.606;7.576;2022-09-09T00:05:33;98531.25;;;22.00;49.53
10587;BME280;5341;47.606;7.576;2022-09-09T00:08:11;98542.94;;;21.96;49.71
10587;BME280;5341;47.606;7.576;2022-09-09T00:10:43;98543.44;;;21.92;49.79
10587;BME280;5341;47.606;7.576;2022-09-09T00:13:18;98537.44;;;21.90;49.79
10587;BME280;5341;47.606;7.576;2022-09-09T00:15:57;98534.13;;;21.83;49.92
10587;BME280;5341;47.606;7.576;2022-09-09T00:18:31;98533.56;;;21.81;50.13
10587;BME280;5341;47.606;7.576;2022-09-09T00:21:06;98531.09;;;21.80;50.14
10587;BME280;5341;47.606;7.576;2022-09-09T00:23:38;98522.09;;;21.79;50.18
10587;BME280;5341;47.606;7.576;2022-09-09T00:26:11;98525.34;;;21.76;50.23
10587;BME280;5341;47.606;7.576;2022-09-09T00:28:48;98526.69;;;21.74;50.39
10587;BME280;5341;47.606;7.576;2022-09-09T00:31:23;98528.88;;;21.72;50.42
10587;BME280;5341;47.606;7.576;2022-09-09T00:33:53;98514.94;;;21.68;50.73
10587;BME280;5341;47.606;7.576;2022-09-09T00:36:23;98520.66;;;21.67;50.63
10587;BME280;5341;47.606;7.576;2022-09-09T00:38:57;98520.91;;;21.65;50.64
10587;BME280;5341;47.606;7.576;2022-09-09T00:41:38;98524.97;;;21.62;50.78
10587;BME280;5341;47.606;7.576;2022-09-09T00:44:20;98526.31;;;21.60;50.98
10587;BME280;5341;47.606;7.576;2022-09-09T00:47:04;98536.38;;;21.59;50.93
10587;BME280;5341;47.606;7.576;2022-09-09T00:49:40;98550.00;;;21.59;50.97
10587;BME280;5341;47.606;7.576;2022-09-09T00:52:25;98560.88;;;21.59;50.84
10587;BME280;5341;47.606;7.576;2022-09-09T00:55:05;98555.44;;;21.59;51.17
10587;BME280;5341;47.606;7.576;2022-09-09T00:57:34;98565.81;;;21.62;51.15
10587;BME280;5341;47.606;7.576;2022-09-09T01:00:19;98591.94;;;21.63;51.08
10587;BME280;5341;47.606;7.576;2022-09-09T01:02:53;98584.84;;;21.62;51.08
10587;BME280;5341;47.606;7.576;2022-09-09T01:05:34;98574.78;;;21.63;51.26
10587;BME280;5341;47.606;7.576;2022-09-09T01:08:06;98572.06;;;21.63;51.20
10587;BME280;5341;47.606;7.576;2022-09-09T01:10:43;98553.53;;;21.60;51.39
10587;BME280;5341;47.606;7.576;2022-09-09T01:13:19;98557.06;;;21.60;51.57
10587;BME280;5341;47.606;7.576;2022-09-09T01:15:49;98561.69;;;21.60;51.63
10587;BME280;5341;47.606;7.576;2022-09-09T01:18:23;98555.44;;;21.59;51.68
10587;BME280;5341;47.606;7.576;2022-09-09T01:21:04;98562.78;;;21.59;51.95
10587;BME280;5341;47.606;7.576;2022-09-09T01:23:59;98556.53;;;21.58;52.26
10587;BME280;5341;47.606;7.576;2022-09-09T01:26:41;98549.66;;;21.56;52.27
10587;BME280;5341;47.606;7.576;2022-09-09T01:29:21;98542.03;;;21.53;52.42
10587;BME280;5341;47.606;7.576;2022-09-09T01:31:54;98545.84;;;21.52;52.57
10587;BME280;5341;47.606;7.576;2022-09-09T01:34:25;98550.47;;;21.51;52.65
10587;BME280;5341;47.606;7.576;2022-09-09T01:36:57;98539.84;;;21.50;52.68
10587;BME280;5341;47.606;7.576;2022-09-09T01:39:27;98546.91;;;21.51;52.88
10587;BME280;5341;47.606;7.576;2022-09-09T01:42:12;98546.34;;;21.49;52.93
10587;BME280;5341;47.606;7.576;2022-09-09T01:44:41;98543.06;;;21.47;53.08
10587;BME280;5341;47.606;7.576;2022-09-09T01:47:09;98542.25;;;21.46;53.11
10587;BME280;5341;47.606;7.576;2022-09-09T01:49:57;98545.72;;;21.42;53.35
10587;BME280;5341;47.606;7.576;2022-09-09T01:52:29;98545.19;;;21.40;53.41
10587;BME280;5341;47.606;7.576;2022-09-09T01:54:58;98549.25;;;21.37;53.47
10587;BME280;5341;47.606;7.576;2022-09-09T01:57:40;98542.16;;;21.36;53.42
10587;BME280;5341;47.606;7.576;2022-09-09T02:00:13;98551.13;;;21.37;53.49
10587;BME280;5341;47.606;7.576;2022-09-09T02:02:51;98550.06;;;21.38;53.58
10587;BME280;5341;47.606;7.576;2022-09-09T02:05:35;98541.06;;;21.37;53.52
10587;BME280;5341;47.606;7.576;2022-09-09T02:08:08;98547.34;;;21.38;53.69
10587;BME280;5341;47.606;7.576;2022-09-09T02:10:55;98544.63;;;21.38;53.72
10587;BME280;5341;47.606;7.576;2022-09-09T02:13:48;98541.91;;;21.38;53.77
10587;BME280;5341;47.606;7.576;2022-09-09T02:16:22;98535.63;;;21.37;53.81
10587;BME280;5341;47.606;7.576;2022-09-09T02:18:56;98542.72;;;21.38;53.96
10587;BME280;5341;47.606;7.576;2022-09-09T02:21:35;98532.91;;;21.37;54.01
10587;BME280;5341;47.606;7.576;2022-09-09T02:24:05;98527.47;;;21.37;54.15
10587;BME280;5341;47.606;7.576;2022-09-09T02:26:41;98532.91;;;21.37;54.17
10587;BME280;5341;47.606;7.576;2022-09-09T02:29:14;98531.00;;;21.38;54.07
10587;BME280;5341;47.606;7.576;2022-09-09T02:31:44;98528.28;;;21.38;54.31
10587;BME280;5341;47.606;7.576;2022-09-09T02:34:20;98519.06;;;21.39;54.37
10587;BME280;5341;47.606;7.576;2022-09-09T02:36:51;98523.66;;;21.38;54.35
10587;BME280;5341;47.606;7.576;2022-09-09T02:39:21;98516.84;;;21.35;54.36
10587;BME280;5341;47.606;7.576;2022-09-09T02:41:50;98519.56;;;21.35;54.48
10587;BME280;5341;47.606;7.576;2022-09-09T02:44:27;98519.56;;;21.35;54.66
10587;BME280;5341;47.606;7.576;2022-09-09T02:47:07;98528.81;;;21.34;54.61
10587;BME280;5341;47.606;7.576;2022-09-09T02:49:46;98527.19;;;21.33;54.69
10587;BME280;5341;47.606;7.576;2022-09-09T02:52:20;98534.53;;;21.33;54.69
10587;BME280;5341;47.606;7.576;2022-09-09T02:54:58;98535.81;;;21.30;54.78
10587;BME280;5341;47.606;7.576;2022-09-09T02:57:31;98539.63;;;21.29;54.84
10587;BME280;5341;47.606;7.576;2022-09-09T03:00:00;98537.16;;;21.28;54.92
10587;BME280;5341;47.606;7.576;2022-09-09T03:02:31;98537.44;;;21.26;54.99
10587;BME280;5341;47.606;7.576;2022-09-09T03:05:05;98535.53;;;21.27;54.97
10587;BME280;5341;47.606;7.576;2022-09-09T03:07:33;98538.25;;;21.27;55.18
10587;BME280;5341;47.606;7.576;2022-09-09T03:10:01;98536.34;;;21.27;55.07
10587;BME280;5341;47.606;7.576;2022-09-09T03:12:28;98535.78;;;21.25;55.13
10587;BME280;5341;47.606;7.576;2022-09-09T03:14:56;98529.75;;;21.23;55.16
10587;BME280;5341;47.606;7.576;2022-09-09T03:17:26;98530.28;;;21.20;55.21
10587;BME280;5341;47.606;7.576;2022-09-09T03:19:55;98525.06;;;21.19;55.23
10587;BME280;5341;47.606;7.576;2022-09-09T03:22:23;98526.97;;;21.18;55.56
10587;BME280;5341;47.606;7.576;2022-09-09T03:24:51;98520.97;;;21.16;55.28
10587;BME280;5341;47.606;7.576;2022-09-09T03:27:19;98516.88;;;21.14;55.64
10587;BME280;5341;47.606;7.576;2022-09-09T03:29:47;98519.59;;;21.14;55.70
10587;BME280;5341;47.606;7.576;2022-09-09T03:32:20;98522.56;;;21.12;55.49
10587;BME280;5341;47.606;7.576;2022-09-09T03:34:50;98519.84;;;21.12;55.60
10587;BME280;5341;47.606;7.576;2022-09-09T03:37:18;98528.53;;;21.09;55.80
10587;BME280;5341;47.606;7.576;2022-09-09T03:39:48;98527.94;;;21.07;55.79
10587;BME280;5341;47.606;7.576;2022-09-09T03:42:17;98521.69;;;21.06;55.90
10587;BME280;5341;47.606;7.576;2022-09-09T03:44:49;98520.03;;;21.05;55.94
10587;BME280;5341;47.606;7.576;2022-09-09T03:47:20;98530.66;;;21.07;55.86
10587;BME280;5341;47.606;7.576;2022-09-09T03:49:52;98535.28;;;21.06;55.92
10587;BME280;5341;47.606;7.576;2022-09-09T03:52:19;98525.22;;;21.07;55.98
10587;BME280;5341;47.606;7.576;2022-09-09T03:54:52;98527.72;;;21.09;55.99
10587;BME280;5341;47.606;7.576;2022-09-09T03:57:20;98532.34;;;21.08;55.88
10587;BME280;5341;47.606;7.576;2022-09-09T03:59:48;98522.50;;;21.07;55.99
10587;BME280;5341;47.606;7.576;2022-09-09T04:02:15;98523.59;;;21.06;55.91
10587;BME280;5341;47.606;7.576;2022-09-09T04:04:43;98520.03;;;21.05;56.10
10587;BME280;5341;47.606;7.576;2022-09-09T04:07:12;98520.03;;;21.05;55.92
10587;BME280;5341;47.606;7.576;2022-09-09T04:09:40;98511.31;;;21.03;56.06
10587;BME280;5341;47.606;7.576;2022-09-09T04:12:08;98508.63;;;21.03;55.86
10587;BME280;5341;47.606;7.576;2022-09-09T04:14:39;98516.78;;;21.03;56.00
10587;BME280;5341;47.606;7.576;2022-09-09T04:17:07;98519.47;;;21.03;55.96
10587;BME280;5341;47.606;7.576;2022-09-09T04:19:36;98529.53;;;21.03;55.95
10587;BME280;5341;47.606;7.576;2022-09-09T04:22:04;98525.19;;;21.02;56.00
10587;BME280;5341;47.606;7.576;2022-09-09T04:24:34;98532.53;;;21.01;55.95
10587;BME280;5341;47.606;7.576;2022-09-09T04:27:02;98527.91;;;21.02;56.19
10587;BME280;5341;47.606;7.576;2022-09-09T04:29:30;98537.13;;;21.01;56.16
10587;BME280;5341;47.606;7.576;2022-09-09T04:31:58;98527.34;;;21.00;56.12
10587;BME280;5341;47.606;7.576;2022-09-09T04:34:25;98532.53;;;21.01;56.26
10587;BME280;5341;47.606;7.576;2022-09-09T04:36:54;98527.59;;;20.98;56.17
10587;BME280;5341;47.606;7.576;2022-09-09T04:39:22;98530.56;;;20.97;56.11
10587;BME280;5341;47.606;7.576;2022-09-09T04:41:52;98528.09;;;20.95;56.36
10587;BME280;5341;47.606;7.576;2022-09-09T04:44:22;98531.88;;;20.94;56.29
10587;BME280;5341;47.606;7.576;2022-09-09T04:46:49;98537.31;;;20.94;56.37
10587;BME280;5341;47.606;7.576;2022-09-09T04:49:17;98540.84;;;20.95;56.41
10587;BME280;5341;47.606;7.576;2022-09-09T04:51:44;98538.97;;;20.95;56.40
10587;BME280;5341;47.606;7.576;2022-09-09T04:54:13;98537.31;;;20.94;56.35
10587;BME280;5341;47.606;7.576;2022-09-09T04:56:43;98540.84;;;20.95;56.35
10587;BME280;5341;47.606;7.576;2022-09-09T04:59:13;98537.31;;;20.94;56.44
10587;BME280;5341;47.606;7.576;2022-09-09T05:01:45;98544.34;;;20.90;56.55
10587;BME280;5341;47.606;7.576;2022-09-09T05:04:13;98533.19;;;20.87;56.63
10587;BME280;5341;47.606;7.576;2022-09-09T05:06:41;98536.97;;;20.86;56.71
10587;BME280;5341;47.606;7.576;2022-09-09T05:09:11;98538.28;;;20.83;56.84
10587;BME280;5341;47.606;7.576;2022-09-09T05:11:39;98533.09;;;20.82;56.85
10587;BME280;5341;47.606;7.576;2022-09-09T05:14:14;98542.03;;;20.77;57.12
10587;BME280;5341;47.606;7.576;2022-09-09T05:16:42;98539.31;;;20.77;56.95
10587;BME280;5341;47.606;7.576;2022-09-09T05:19:13;98549.34;;;20.76;56.96
10587;BME280;5341;47.606;7.576;2022-09-09T05:21:44;98542.84;;;20.77;56.87
10587;BME280;5341;47.606;7.576;2022-09-09T05:24:13;98545.31;;;20.79;56.92
10587;BME280;5341;47.606;7.576;2022-09-09T05:31:39;98545.88;;;20.81;56.95
10587;BME280;5341;47.606;7.576;2022-09-09T05:34:11;98546.69;;;20.82;57.01
10587;BME280;5341;47.606;7.576;2022-09-09T05:36:38;98549.16;;;20.83;57.03
10587;BME280;5341;47.606;7.576;2022-09-09T05:39:06;98546.69;;;20.82;57.01
10587;BME280;5341;47.606;7.576;2022-09-09T05:41:34;98546.69;;;20.82;56.99
10587;BME280;5341;47.606;7.576;2022-09-09T05:46:35;98560.53;;;20.80;57.19
10587;BME280;5341;47.606;7.576;2022-09-09T05:49:04;98560.28;;;20.82;57.38
10587;BME280;5341;47.606;7.576;2022-09-09T05:51:33;98564.91;;;20.81;57.19
10587;BME280;5341;47.606;7.576;2022-09-09T05:56:37;98573.03;;;20.81;57.35
10587;BME280;5341;47.606;7.576;2022-09-09T05:59:07;98569.25;;;20.82;57.54
10587;BME280;5341;47.606;7.576;2022-09-09T06:01:36;98567.34;;;20.83;57.59
10587;BME280;5341;47.606;7.576;2022-09-09T06:04:09;98567.94;;;20.85;57.52
10587;BME280;5341;47.606;7.576;2022-09-09T06:06:39;98564.16;;;20.86;57.58
10587;BME280;5341;47.606;7.576;2022-09-09T06:09:16;98566.31;;;20.84;57.63
10587;BME280;5341;47.606;7.576;2022-09-09T06:11:44;98568.19;;;20.83;57.76
10587;BME280;5341;47.606;7.576;2022-09-09T06:14:13;98562.75;;;20.83;57.76
10587;BME280;5341;47.606;7.576;2022-09-09T06:16:44;98565.47;;;20.83;57.78
10587;BME280;5341;47.606;7.576;2022-09-09T06:19:20;98578.00;;;20.84;57.78
10587;BME280;5341;47.606;7.576;2022-09-09T06:21:48;98563.34;;;20.85;57.82
10587;BME280;5341;47.606;7.576;2022-09-09T06:24:16;98559.53;;;20.86;57.86
10587;BME280;5341;47.606;7.576;2022-09-09T06:26:45;98560.34;;;20.87;57.73
10587;BME280;5341;47.606;7.576;2022-09-09T06:29:19;98549.50;;;20.87;57.94
10587;BME280;5341;47.606;7.576;2022-09-09T06:31:46;98562.00;;;20.88;57.95
10587;BME280;5341;47.606;7.576;2022-09-09T06:34:22;98560.91;;;20.89;58.07
10587;BME280;5341;47.606;7.576;2022-09-09T06:36:54;98560.66;;;20.90;58.10
10587;BME280;5341;47.606;7.576;2022-09-09T06:39:24;98569.63;;;20.91;58.02
10587;BME280;5341;47.606;7.576;2022-09-09T06:41:52;98566.66;;;20.92;58.07
10587;BME280;5341;47.606;7.576;2022-09-09T06:44:39;98581.91;;;20.93;58.19
10587;BME280;5341;47.606;7.576;2022-09-09T06:47:12;98579.75;;;20.95;58.24
10587;BME280;5341;47.606;7.576;2022-09-09T06:49:43;98577.88;;;20.96;58.22
10587;BME280;5341;47.606;7.576;2022-09-09T06:52:11;98580.06;;;20.99;58.08
10587;BME280;5341;47.606;7.576;2022-09-09T06:54:39;98582.53;;;21.00;58.13
10587;BME280;5341;47.606;7.576;2022-09-09T06:57:07;98581.47;;;21.01;58.20
10587;BME280;5341;47.606;7.576;2022-09-09T06:59:36;98589.63;;;21.01;58.24
10587;BME280;5341;47.606;7.576;2022-09-09T07:02:04;98591.25;;;21.02;58.05
10587;BME280;5341;47.606;7.576;2022-09-09T07:04:32;98589.09;;;21.04;58.28
10587;BME280;5341;47.606;7.576;2022-09-09T07:07:02;98590.75;;;21.05;58.23
10587;BME280;5341;47.606;7.576;2022-09-09T07:09:30;98597.00;;;21.06;58.29
10587;BME280;5341;47.606;7.576;2022-09-09T07:11:58;98595.09;;;21.06;58.26
10587;BME280;5341;47.606;7.576;2022-09-09T07:14:29;98600.31;;;21.08;58.22
10587;BME280;5341;47.606;7.576;2022-09-09T07:17:00;98605.75;;;21.08;58.38
10587;BME280;5341;47.606;7.576;2022-09-09T07:19:34;98606.31;;;21.10;58.44
10587;BME280;5341;47.606;7.576;2022-09-09T07:22:05;98607.94;;;21.11;58.49
10587;BME280;5341;47.606;7.576;2022-09-09T07:24:35;98606.88;;;21.12;58.41
10587;BME280;5341;47.606;7.576;2022-09-09T07:27:04;98612.88;;;21.14;58.81
10587;BME280;5341;47.606;7.576;2022-09-09T07:29:32;98613.69;;;21.15;58.93
10587;BME280;5341;47.606;7.576;2022-09-09T07:32:01;98616.97;;;21.17;59.02
10587;BME280;5341;47.606;7.576;2022-09-09T07:34:34;98614.00;;;21.18;59.32
10587;BME280;5341;47.606;7.576;2022-09-09T07:37:02;98615.63;;;21.19;59.42
10587;BME280;5341;47.606;7.576;2022-09-09T07:39:34;98613.50;;;21.21;59.66
10587;BME280;5341;47.606;7.576;2022-09-09T07:42:01;98615.72;;;21.24;59.58
10587;BME280;5341;47.606;7.576;2022-09-09T07:44:31;98619.25;;;21.25;59.56
10587;BME280;5341;47.606;7.576;2022-09-09T07:47:07;98617.38;;;21.25;59.54
10587;BME280;5341;47.606;7.576;2022-09-09T07:49:39;98626.69;;;21.29;59.51
10587;BME280;5341;47.606;7.576;2022-09-09T07:52:08;98619.34;;;21.30;59.45
10587;BME280;5341;47.606;7.576;2022-09-09T07:54:41;98617.50;;;21.35;59.37
10587;BME280;5341;47.606;7.576;2022-09-09T07:57:09;98616.47;;;21.42;59.12
10587;BME280;5341;47.606;7.576;2022-09-09T07:59:38;98629.00;;;21.43;59.11
10587;BME280;5341;47.606;7.576;2022-09-09T08:02:06;98621.41;;;21.45;59.04
10587;BME280;5341;47.606;7.576;2022-09-09T08:04:35;98628.50;;;21.46;58.74
10587;BME280;5341;47.606;7.576;2022-09-09T08:07:03;98629.88;;;21.48;58.68
10587;BME280;5341;47.606;7.576;2022-09-09T08:09:37;98629.88;;;21.48;58.54
10587;BME280;5341;47.606;7.576;2022-09-09T08:12:16;98625.25;;;21.49;58.53
10587;BME280;5341;47.606;7.576;2022-09-09T08:14:44;98629.63;;;21.50;58.29
10587;BME280;5341;47.606;7.576;2022-09-09T08:17:11;98632.91;;;21.52;57.94
10587;BME280;5341;47.606;7.576;2022-09-09T08:19:39;98638.31;;;21.47;57.69
10587;BME280;5341;47.606;7.576;2022-09-09T08:22:12;98634.81;;;21.51;57.59
10587;BME280;5341;47.606;7.576;2022-09-09T08:24:40;98627.19;;;21.53;57.70
10587;BME280;5341;47.606;7.576;2022-09-09T08:27:09;98632.47;;;21.60;57.03
10587;BME280;5341;47.606;7.576;2022-09-09T08:29:38;98628.44;;;21.68;56.81
10587;BME280;5341;47.606;7.576;2022-09-09T08:32:06;98617.59;;;21.73;56.75
10587;BME280;5341;47.606;7.576;2022-09-09T08:34:36;98617.38;;;21.79;56.75
10587;BME280;5341;47.606;7.576;2022-09-09T08:37:08;98619.91;;;21.86;56.37
10587;BME280;5341;47.606;7.576;2022-09-09T08:39:39;98627.59;;;21.94;55.59
10587;BME280;5341;47.606;7.576;2022-09-09T08:45:22;98625.19;;;21.98;54.98
10587;BME280;5341;47.606;7.576;2022-09-09T08:48:07;98630.00;;;21.90;54.05
10587;BME280;5341;47.606;7.576;2022-09-09T08:50:42;98637.78;;;21.77;53.33
10587;BME280;5341;47.606;7.576;2022-09-09T08:53:20;98628.38;;;21.62;52.49
10587;BME280;5341;47.606;7.576;2022-09-09T08:55:52;98633.31;;;21.65;53.23
10587;BME280;5341;47.606;7.576;2022-09-09T08:58:29;98629.91;;;21.80;54.06
10587;BME280;5341;47.606;7.576;2022-09-09T09:01:18;98634.72;;;22.00;54.73
10587;BME280;5341;47.606;7.576;2022-09-09T09:03:57;98640.03;;;22.12;54.76
10587;BME280;5341;47.606;7.576;2022-09-09T09:06:39;98642.03;;;22.21;54.95
10587;BME280;5341;47.606;7.576;2022-09-09T09:09:16;98642.94;;;22.37;54.57
10587;BME280;5341;47.606;7.576;2022-09-09T09:11:49;98649.00;;;22.44;52.76
10587;BME280;5341;47.606;7.576;2022-09-09T09:14:20;98647.63;;;22.42;52.21
10587;BME280;5341;47.606;7.576;2022-09-09T09:16:54;98632.13;;;22.47;51.81
10587;BME280;5341;47.606;7.576;2022-09-09T09:19:26;98629.19;;;22.59;51.79
10587;BME280;5341;47.606;7.576;2022-09-09T09:22:00;98637.72;;;22.68;51.62
10587;BME280;5341;47.606;7.576;2022-09-09T09:24:39;98644.25;;;22.72;51.12
10587;BME280;5341;47.606;7.576;2022-09-09T09:27:13;98644.59;;;22.80;51.47
10587;BME280;5341;47.606;7.576;2022-09-09T09:29:47;98639.22;;;22.91;50.60
10587;BME280;5341;47.606;7.576;2022-09-09T09:32:21;98633.53;;;22.97;50.06
10587;BME280;5341;47.606;7.576;2022-09-09T09:34:51;98634.06;;;22.94;50.10
10587;BME280;5341;47.606;7.576;2022-09-09T09:37:27;98636.53;;;23.01;49.44
10587;BME280;5341;47.606;7.576;2022-09-09T09:40:08;98634.09;;;23.04;49.29
10587;BME280;5341;47.606;7.576;2022-09-09T09:42:46;98634.66;;;23.06;49.48
10587;BME280;5341;47.606;7.576;2022-09-09T09:45:20;98635.78;;;23.16;49.43
10587;BME280;5341;47.606;7.576;2022-09-09T09:48:04;98634.47;;;23.28;48.74
10587;BME280;5341;47.606;7.576;2022-09-09T09:50:48;98629.84;;;23.34;48.37
10587;BME280;5341;47.606;7.576;2022-09-09T09:53:21;98624.94;;;23.36;48.14
10587;BME280;5341;47.606;7.576;2022-09-09T09:55:55;98618.13;;;23.44;47.87
10587;BME280;5341;47.606;7.576;2022-09-09T09:58:25;98616.81;;;23.51;47.26
10587;BME280;5341;47.606;7.576;2022-09-09T10:00:55;98612.69;;;23.49;46.28
10587;BME280;5341;47.606;7.576;2022-09-09T10:03:31;98611.00;;;23.27;46.46
10587;BME280;5341;47.606;7.576;2022-09-09T10:06:06;98598.19;;;23.28;47.02
10587;BME280;5341;47.606;7.576;2022-09-09T10:08:44;98609.09;;;23.38;47.72
10587;BME280;5341;47.606;7.576;2022-09-09T10:11:26;98606.66;;;23.47;46.84
10587;BME280;5341;47.606;7.576;2022-09-09T10:14:05;98611.31;;;23.46;46.24
10587;BME280;5341;47.606;7.576;2022-09-09T10:16:54;98605.06;;;23.51;45.66
10587;BME280;5341;47.606;7.576;2022-09-09T10:19:32;98604.56;;;23.64;45.64
10587;BME280;5341;47.606;7.576;2022-09-09T10:22:13;98590.66;;;23.81;44.58
10587;BME280;5341;47.606;7.576;2022-09-09T10:25:12;98583.28;;;24.02;43.70
10587;BME280;5341;47.606;7.576;2022-09-09T10:28:00;98588.19;;;24.05;43.37
10587;BME280;5341;47.606;7.576;2022-09-09T10:30:42;98590.38;;;24.13;42.43
10587;BME280;5341;47.606;7.576;2022-09-09T10:33:23;98586.53;;;24.19;42.47
10587;BME280;5341;47.606;7.576;2022-09-09T10:36:09;98580.00;;;24.30;42.06
10587;BME280;5341;47.606;7.576;2022-09-09T10:38:41;98580.81;;;24.36;41.92
10587;BME280;5341;47.606;7.576;2022-09-09T10:41:19;98578.31;;;24.44;41.82
10587;BME280;5341;47.606;7.576;2022-09-09T10:47:05;98582.91;;;24.59;41.47
10587;BME280;5341;47.606;7.576;2022-09-09T10:49:52;98591.13;;;24.59;42.32
10587;BME280;5341;47.606;7.576;2022-09-09T10:52:32;98571.47;;;24.52;41.89
10587;BME280;5341;47.606;7.576;2022-09-09T10:55:10;98587.34;;;24.35;41.94
10587;BME280;5341;47.606;7.576;2022-09-09T10:57:45;98588.97;;;24.20;42.09
10587;BME280;5341;47.606;7.576;2022-09-09T11:00:17;98592.28;;;23.92;42.25
10587;BME280;5341;47.606;7.576;2022-09-09T11:02:49;98582.72;;;23.79;42.67
10587;BME280;5341;47.606;7.576;2022-09-09T11:05:21;98593.91;;;23.67;43.29
10587;BME280;5341;47.606;7.576;2022-09-09T11:07:56;98596.31;;;23.54;43.70
10587;BME280;5341;47.606;7.576;2022-09-09T11:10:30;98587.28;;;23.48;43.97
10587;BME280;5341;47.606;7.576;2022-09-09T11:13:03;98592.25;;;23.61;44.82
10587;BME280;5341;47.606;7.576;2022-09-09T11:15:37;98588.47;;;23.62;43.79
10587;BME280;5341;47.606;7.576;2022-09-09T11:18:12;98590.63;;;23.71;43.21
10587;BME280;5341;47.606;7.576;2022-09-09T11:20:42;98579.44;;;23.67;42.93
10587;BME280;5341;47.606;7.576;2022-09-09T11:23:14;98584.34;;;23.70;43.25
10587;BME280;5341;47.606;7.576;2022-09-09T11:25:48;98579.97;;;23.74;42.79
10587;BME280;5341;47.606;7.576;2022-09-09T11:28:29;98580.56;;;23.76;43.52
10587;BME280;5341;47.606;7.576;2022-09-09T11:31:13;98577.81;;;24.02;43.19
10587;BME280;5341;47.606;7.576;2022-09-09T11:34:06;98580.22;;;24.44;43.70
10587;BME280;5341;47.606;7.576;2022-09-09T11:36:57;98572.56;;;24.61;42.87
10587;BME280;5341;47.606;7.576;2022-09-09T11:39:48;98576.34;;;24.65;42.68
10587;BME280;5341;47.606;7.576;2022-09-09T11:42:20;98587.78;;;24.88;42.62
10587;BME280;5341;47.606;7.576;2022-09-09T11:44:48;98581.72;;;24.96;41.92
10587;BME280;5341;47.606;7.576;2022-09-09T11:47:23;98591.28;;;25.08;42.36
10587;BME280;5341;47.606;7.576;2022-09-09T11:49:55;98584.75;;;25.43;41.90
10587;BME280;5341;47.606;7.576;2022-09-09T11:52:34;98595.31;;;25.70;41.40
10587;BME280;5341;47.606;7.576;2022-09-09T11:55:10;98587.50;;;25.88;40.77
10587;BME280;5341;47.606;7.576;2022-09-09T11:57:39;98581.72;;;25.94;39.04
10587;BME280;5341;47.606;7.576;2022-09-09T12:00:33;98577.72;;;25.77;38.45
10587;BME280;5341;47.606;7.576;2022-09-09T12:03:01;98568.09;;;25.79;39.72
10587;BME280;5341;47.606;7.576;2022-09-09T12:05:38;98564.97;;;25.96;39.42
10587;BME280;5341;47.606;7.576;2022-09-09T12:08:09;98567.19;;;26.23;39.90
10587;BME280;5341;47.606;7.576;2022-09-09T12:10:53;98576.91;;;26.10;39.18
10587;BME280;5341;47.606;7.576;2022-09-09T12:13:23;98580.09;;;25.88;39.04
10587;BME280;5341;47.606;7.576;2022-09-09T12:15:52;98586.84;;;26.01;38.33
10587;BME280;5341;47.606;7.576;2022-09-09T12:18:25;98593.69;;;26.33;38.82
10587;BME280;5341;47.606;7.576;2022-09-09T12:20:59;98586.38;;;26.52;37.83
10587;BME280;5341;47.606;7.576;2022-09-09T12:23:37;98581.44;;;26.78;37.91
10587;BME280;5341;47.606;7.576;2022-09-09T12:26:23;98592.22;;;26.45;36.99
10587;BME280;5341;47.606;7.576;2022-09-09T12:29:04;98586.81;;;26.06;37.24
10587;BME280;5341;47.606;7.576;2022-09-09T12:31:39;98587.13;;;25.60;38.80
10587;BME280;5341;47.606;7.576;2022-09-09T12:34:11;98583.81;;;25.63;39.10
10587;BME280;5341;47.606;7.576;2022-09-09T12:36:41;98597.94;;;25.86;39.35
10587;BME280;5341;47.606;7.576;2022-09-09T12:39:18;98607.78;;;25.87;38.11
10587;BME280;5341;47.606;7.576;2022-09-09T12:41:55;98604.53;;;25.80;38.31
10587;BME280;5341;47.606;7.576;2022-09-09T12:44:23;98610.88;;;25.75;39.01
10587;BME280;5341;47.606;7.576;2022-09-09T12:46:53;98599.22;;;25.54;38.76
10587;BME280;5341;47.606;7.576;2022-09-09T12:49:27;98600.13;;;25.39;39.21
10587;BME280;5341;47.606;7.576;2022-09-09T12:51:57;98590.31;;;25.33;39.71
10587;BME280;5341;47.606;7.576;2022-09-09T12:54:26;98586.50;;;25.29;39.32
10587;BME280;5341;47.606;7.576;2022-09-09T12:56:55;98584.03;;;25.28;39.27
10587;BME280;5341;47.606;7.576;2022-09-09T12:59:25;98585.97;;;25.27;39.34
10587;BME280;5341;47.606;7.576;2022-09-09T13:01:57;98581.34;;;25.23;38.45
10587;BME280;5341;47.606;7.576;2022-09-09T13:04:26;98583.56;;;25.16;38.18
10587;BME280;5341;47.606;7.576;2022-09-09T13:06:53;98576.78;;;24.98;38.22
10587;BME280;5341;47.606;7.576;2022-09-09T13:09:21;98579.31;;;24.84;38.21
10587;BME280;5341;47.606;7.576;2022-09-09T13:11:51;98569.50;;;24.73;38.21
10587;BME280;5341;47.606;7.576;2022-09-09T13:14:28;98571.44;;;24.62;38.26
10587;BME280;5341;47.606;7.576;2022-09-09T13:17:00;98567.38;;;24.49;38.15
10587;BME280;5341;47.606;7.576;2022-09-09T13:19:32;98563.88;;;24.23;38.12
10587;BME280;5341;47.606;7.576;2022-09-09T13:22:11;98560.03;;;24.14;38.64
10587;BME280;5341;47.606;7.576;2022-09-09T13:24:40;98553.72;;;24.29;38.93
10587;BME280;5341;47.606;7.576;2022-09-09T13:27:28;98555.88;;;24.52;39.33
10587;BME280;5341;47.606;7.576;2022-09-09T13:30:00;98556.59;;;24.83;38.41
10587;BME280;5341;47.606;7.576;2022-09-09T13:32:30;98556.53;;;25.04;39.11
10587;BME280;5341;47.606;7.576;2022-09-09T13:34:59;98550.38;;;25.27;37.98
10587;BME280;5341;47.606;7.576;2022-09-09T13:37:32;98542.44;;;25.65;38.49
10587;BME280;5341;47.606;7.576;2022-09-09T13:40:02;98549.66;;;25.95;38.19
10587;BME280;5341;47.606;7.576;2022-09-09T13:42:32;98535.88;;;26.29;37.82
10587;BME280;5341;47.606;7.576;2022-09-09T13:45:03;98543.75;;;26.36;37.40
10587;BME280;5341;47.606;7.576;2022-09-09T13:47:32;98539.44;;;26.29;37.09
10587;BME280;5341;47.606;7.576;2022-09-09T13:50:18;98543.59;;;26.51;37.31
10587;BME280;5341;47.606;7.576;2022-09-09T13:52:47;98535.50;;;26.65;37.34
10587;BME280;5341;47.606;7.576;2022-09-09T13:55:15;98532.28;;;26.81;36.98
10587;BME280;5341;47.606;7.576;2022-09-09T13:57:51;98529.75;;;26.66;36.04